Station: Lucinda  

  Atmospheric Gas Attenuation - ITU Rec 676-11   ----------------- dB/100km -----------------
Date Time Temp RH % AH g/m3 Dew Point Wind Direction Speed kph Gust kph Barometer mB Rainfall Since 9am 24GHz 47GHz 76GHz 122GHz 134GHz 241GHz
08/05 12:30 25 73 16.8 19.8 19 28 1015.8 0 36.3 36.1 67.2 177.7 192.1 667.0
08/05 12:20 24.9 24 28 1015.9 0
08/05 12:10 24.8 30 32 1016 0
08/05 12:00 24.9 75 17.17 20.2 24 32 1016.2 0 37.1 36.8 69.0 182.4 197.8 687.0
08/05 11:50 24.7 28 30 1016.3 0
08/05 11:40 24.6 26 32 1016.4 0
08/05 11:30 24.6 72 16.2 19.2 28 35 1016.5 0 35.0 35.2 64.9 171.6 184.5 640.3
08/05 11:20 24.5 28 32 1016.6 0
08/05 11:10 24.6 28 33 1016.6 0
08/05 11:00 24.5 71 15.89 18.9 32 37 1016.8 0 34.4 34.7 63.7 168.2 180.3 625.7
08/05 10:50 24.7 26 30 1016.9 0
08/05 10:40 24.6 30 33 1016.9 0
08/05 10:30 24.7 30 33 1016.8 0
08/05 10:20 24.7 28 30 1017 0
08/05 10:10 24.6 32 35 1016.9 0
08/05 10:00 24.5 72 16.11 19.1 32 35 1017 0 34.9 35.1 64.7 170.8 183.5 636.9
08/05 09:50 24.4 30 32 1017.1 0
08/05 09:40 24.5 28 30 1017 0
08/05 09:30 24.6 76 17.1 20.1 30 35 1016.9 0 36.9 36.8 69.0 182.3 197.7 686.4
08/05 09:20 24.6 26 30 1016.8 0
08/05 09:10 24.5 30 33 1016.7 0
08/05 09:00 24.5 76 17.01 20 32 35 1016.6 0 36.8 36.7 68.7 181.5 196.6 682.5
08/05 08:50 24.5 32 33 1016.6 0
08/05 08:40 24.7 28 32 1016.6 0
08/05 08:30 24.6 75 16.88 19.9 30 35 1016.4 0 36.5 36.4 68.0 179.6 194.4 674.8
08/05 08:20 25 20 28 1016.4 0
08/05 08:10 25 17 24 1016.3 0
08/05 08:00 24.9 74 16.94 19.9 22 30 1016.2 0 36.6 36.4 68.0 179.6 194.4 675.2
08/05 07:50 24.9 22 24 1016 0
08/05 07:40 24.8 15 17 1015.9 0
08/05 07:30 24.7 75 16.98 20 19 26 1015.8 0 36.7 36.5 68.3 180.5 195.5 678.8
08/05 07:20 24.7 20 24 1015.7 0
08/05 07:10 24.7 20 26 1015.6 0
08/05 07:00 24.6 76 17.1 20.1 24 32 1015.4 0 37.0 36.8 68.9 182.1 197.5 685.7
08/05 06:50 24.5 20 24 1015.3 0
08/05 06:40 24.4 32 33 1015.2 0
08/05 06:30 24.5 79 17.68 20.6 26 33 1015.2 0 38.2 37.9 71.6 189.4 206.4 716.6
08/05 06:20 24.5 28 32 1015 0
08/05 06:10 24.4 32 35 1014.9 0
08/05 06:00 24.3 82 18.15 21 28 33 1014.7 0 39.2 38.8 74.0 195.6 214.0 743.1
08/05 05:50 24.4 28 30 1014.5 0
08/05 05:40 24.4 26 30 1014.5 0
08/05 05:30 24.5 85 19.02 21.8 26 32 1014.3 0 41.0 40.4 77.9 206.0 226.8 787.6
08/05 05:20 24.4 24 28 1014.2 0
08/05 05:10 24.7 20 26 1014.2 0
08/05 05:00 24.6 84 18.91 21.7 22 30 1014.3 0 40.8 40.1 77.2 204.3 224.7 780.6
08/05 04:50 24.6 24 26 1014.2 0
08/05 04:40 24.6 26 28 1014.1 0
08/05 04:30 24.6 87 19.58 22.3 24 28 1014 0 42.2 41.4 80.4 212.8 235.2 816.9
08/05 04:20 24.6 19 20 1014 0
08/05 04:10 24.6 22 26 1014 0
08/05 04:00 25 85 19.57 22.3 15 22 1014 0 42.2 41.2 80.0 211.5 233.8 812.0
08/05 03:50 24.8 11 13 1014 0
08/05 03:40 24.8 11 15 1014 0
08/05 03:30 24.9 81 18.54 21.4 11 19 1014 0 40.0 39.3 75.2 198.8 218.1 757.5
08/05 03:20 24.8 13 17 1013.9 0
08/05 03:10 24.9 17 19 1013.8 0
08/05 03:00 24.7 82 18.56 21.4 9 17 1013.8 0 40.1 39.4 75.5 199.6 219.0 760.5
08/05 02:50 24.5 9 9 1013.9 0
08/05 02:40 24.8 11 13 1014 0
08/05 02:30 24.8 82 18.66 21.5 9 15 1014 0 40.3 39.5 75.8 200.6 220.2 765.0
08/05 02:20 24.7 11 13 1014.1 0
08/05 02:10 24.7 7 9 1014.2 0
08/05 02:00 24.7 85 19.24 22 7 13 1014.3 0 41.5 40.7 78.7 208.2 229.6 797.4
08/05 01:50 24.7 9 13 1014.3 0
08/05 01:40 24.7 6 7 1014.3 0
08/05 01:30 24.7 84 19.01 21.8 7 9 1014.3 0 41.0 40.3 77.6 205.3 226.0 784.9
08/05 01:20 24.8 7 9 1014.5 0
08/05 01:10 24.8 9 11 1014.5 0
08/05 01:00 24.8 83 18.89 21.7 9 13 1014.5 0 40.7 40.0 77.0 203.5 223.9 777.5
08/05 00:50 24.8 11 13 1014.6 0
08/05 00:40 24.8 13 15 1014.6 0
08/05 00:30 24.8 81 18.44 21.3 11 15 1014.7 0 39.8 39.1 74.8 197.9 217.0 753.6
08/05 00:20 24.8 13 17 1014.7 0
08/05 00:10 24.8 15 17 1014.8 0
08/05 00:00 24.3 89 19.69 22.4 9 11 1014.9 0 42.5 41.8 81.3 215.2 238.0 826.7
07/05 23:50 24 9 11 1014.9 0
07/05 23:40 24 13 13 1015 0
07/05 23:30 24 90 19.58 22.3 13 15 1015 0 42.3 41.7 81.1 214.7 237.3 824.0
07/05 23:20 24.2 11 13 1015.1 0
07/05 23:10 24.3 13 15 1015.2 0
07/05 23:00 24.7 86 19.47 22.2 13 17 1015.3 0 42.0 41.2 79.9 211.3 233.3 810.5
07/05 22:50 24.9 13 15 1015.4 0
07/05 22:40 24.9 15 17 1015.5 0
07/05 22:30 24.9 82 18.77 21.6 13 15 1015.4 0 40.5 39.7 76.3 201.9 221.9 770.6
07/05 22:20 24.9 13 15 1015.5 0
07/05 22:10 24.9 9 11 1015.5 0
07/05 22:00 24.9 81 18.54 21.4 7 9 1015.5 0 40.0 39.3 75.3 199.1 218.3 758.3
07/05 21:50 24.9 6 7 1015.5 0
07/05 21:40 24.8 6 7 1015.6 0
07/05 21:30 24.8 83 18.89 21.7 6 9 1015.5 0 40.7 40.0 77.0 203.7 224.0 778.1
07/05 21:20 24.9 6 7 1015.6 0
07/05 21:10 24.9 6 7 1015.5 0
07/05 21:00 24.9 83 19 21.8 6 11 1015.5 0 41.0 40.2 77.4 204.8 225.4 783.0
07/05 20:50 24.8 6 7 1015.5 0
07/05 20:40 24.9 6 9 1015.5 0
07/05 20:30 24.9 81 18.54 21.4 7 9 1015.4 0 40.0 39.3 75.3 199.0 218.3 758.3
07/05 20:20 24.9 7 9 1015.4 0
07/05 20:10 24.9 6 7 1015.3 0
07/05 20:00 24.9 82 18.77 21.6 7 11 1015.2 0 40.5 39.7 76.3 201.9 221.8 770.5

Last Refresh: 08-May-2026 12:07:12

Bureau of Meteorology